»·PEaware :: BAW193 KDEN-KLAX

BAW193 :: KDEN-KLAX

FLIGHT INFORMATION

Flight Status: Arrived
Operator:
British Airways
More flights by this operator :: More flights under this callsign
Pilot: Alfredo R. (12181)
Aircraft: Boeing 747-8
(B748)
More flights by this aircraft type
Origin: KDEN Denver Intl
United States
Destination: KLAX Los Angeles Intl
United States
More flights between these airports :: More routes between these airports
Route: BAYLR6 TEHRU JASSE Q90 DNERO ANJLL4
File this flight plan on PilotEdge
Remarks: RMK / SIMBRIEF
Altitude:
(Current/Filed)
400ft
Speed:
(Current/Filed)
475kts
Departed: 16-Jul-20 05:58 PM
Arrived: 16-Jul-20 07:51 PM
Distance/Time
Traveled:
748nm/1:53
Distance/Time
To Go:
Arrived

Flight Plot

Page will automatically refresh every two minutes.

Flight plan parsing failed; only flown route is shown


Map Options




Map Legend


Flown Route
Filed Route
Departure Airport
Arrival Airport
Navaid (VOR, NDB)
Fix

Horizontal Profiles

Position Reports

Time Latitude Longitude Heading Altitude Ground
Speed
16-Jul-20 17:03 39.854488 -104.674895 195 5393ft 0kts
16-Jul-20 17:04 39.854488 -104.674895 195 5393ft 0kts
16-Jul-20 17:05 39.854488 -104.674895 195 5393ft 0kts
16-Jul-20 17:06 39.854488 -104.674895 195 5393ft 0kts
16-Jul-20 17:07 39.854488 -104.674895 195 5393ft 0kts
16-Jul-20 17:08 39.854488 -104.674895 195 5393ft 0kts
16-Jul-20 17:09 39.854488 -104.674895 195 5393ft 0kts
16-Jul-20 17:10 39.854488 -104.674895 195 5393ft 0kts
16-Jul-20 17:11 39.854488 -104.674895 195 5393ft 0kts
16-Jul-20 17:12 39.854488 -104.674895 195 5393ft 0kts
16-Jul-20 17:13 39.854488 -104.674895 195 5393ft 0kts
16-Jul-20 17:14 39.854488 -104.674895 195 5393ft 0kts
16-Jul-20 17:15 39.854488 -104.674895 195 5393ft 0kts
16-Jul-20 17:16 39.854488 -104.674895 195 5393ft 0kts
16-Jul-20 17:17 39.854488 -104.674895 195 5393ft 0kts
16-Jul-20 17:18 39.854488 -104.674895 195 5393ft 0kts
16-Jul-20 17:19 39.854488 -104.674895 195 5393ft 0kts
16-Jul-20 17:20 39.854488 -104.674895 195 5393ft 0kts
16-Jul-20 17:21 39.854488 -104.674895 195 5393ft 0kts
16-Jul-20 17:22 39.854488 -104.674895 195 5393ft 0kts
16-Jul-20 17:22 39.854488 -104.674895 195 5393ft 0kts
16-Jul-20 17:24 39.854488 -104.674895 195 5393ft 0kts
16-Jul-20 17:25 39.854488 -104.674895 195 5393ft 0kts
16-Jul-20 17:25 39.854488 -104.674895 195 5393ft 0kts
16-Jul-20 17:26 39.854488 -104.674895 195 5393ft 0kts
16-Jul-20 17:28 39.854488 -104.674895 195 5393ft 0kts
16-Jul-20 17:28 39.854488 -104.674895 195 5393ft 0kts
16-Jul-20 17:29 39.854488 -104.674895 195 5393ft 0kts
16-Jul-20 17:30 39.854488 -104.674895 195 5393ft 0kts
16-Jul-20 17:31 39.854488 -104.674895 195 5393ft 0kts
16-Jul-20 17:32 39.854488 -104.674895 195 5393ft 0kts
16-Jul-20 17:33 39.854488 -104.674895 195 5393ft 0kts
16-Jul-20 17:34 39.854488 -104.674895 195 5393ft 0kts
16-Jul-20 17:35 39.854489 -104.674894 195 5393ft 0kts
16-Jul-20 17:36 39.854972 -104.674719 195 5395ft 2kts
16-Jul-20 17:37 39.855549 -104.674504 205 5398ft 2kts
16-Jul-20 17:38 39.855940 -104.673924 256 5402ft 2kts
16-Jul-20 17:39 39.855973 -104.674626 270 5398ft 7kts
16-Jul-20 17:40 39.855979 -104.675320 269 5394ft 0kts
16-Jul-20 17:41 39.855979 -104.675321 269 5394ft 0kts
16-Jul-20 17:42 39.855979 -104.675321 269 5394ft 0kts
16-Jul-20 17:43 39.855979 -104.675321 269 5394ft 0kts
16-Jul-20 17:44 39.855979 -104.675321 269 5394ft 0kts
16-Jul-20 17:45 39.855979 -104.675321 269 5394ft 0kts
16-Jul-20 17:46 39.855946 -104.678250 269 5374ft 20kts
16-Jul-20 17:47 39.855924 -104.684665 226 5331ft 14kts
16-Jul-20 17:48 39.852997 -104.684269 134 5326ft 2kts
16-Jul-20 17:49 39.850839 -104.684027 179 5323ft 20kts
16-Jul-20 17:50 39.844066 -104.684100 180 5321ft 29kts
16-Jul-20 17:51 39.841928 -104.684118 180 5325ft 0kts
16-Jul-20 17:52 39.841928 -104.684119 180 5325ft 0kts
16-Jul-20 17:53 39.841928 -104.684118 180 5325ft 0kts
16-Jul-20 17:54 39.841928 -104.684119 180 5325ft 0kts
16-Jul-20 17:55 39.841814 -104.684121 181 5325ft 3kts
16-Jul-20 17:56 39.840709 -104.684761 258 5328ft 0kts
16-Jul-20 17:57 39.840721 -104.694158 269 5344ft 115kts
16-Jul-20 17:58 39.854364 -104.756419 285 6505ft 204kts
16-Jul-20 17:59 39.887025 -104.823666 297 8309ft 251kts
16-Jul-20 18:00 39.875391 -104.909467 207 10299ft 288kts
16-Jul-20 18:01 39.790449 -104.920617 201 12133ft 357kts
16-Jul-20 18:02 39.734348 -105.034325 257 14457ft 427kts
16-Jul-20 18:03 39.700453 -105.180938 249 19040ft 424kts
16-Jul-20 18:04 39.651120 -105.319318 246 22478ft 433kts
16-Jul-20 18:05 39.604892 -105.464041 247 23406ft 440kts
16-Jul-20 18:06 39.556575 -105.608013 246 24625ft 446kts
16-Jul-20 18:07 39.514106 -105.754309 250 27436ft 452kts
16-Jul-20 18:08 39.473633 -105.906688 249 29708ft 461kts
16-Jul-20 18:09 39.430413 -106.060814 249 32092ft 466kts
16-Jul-20 18:10 39.386987 -106.214422 249 34589ft 460kts
16-Jul-20 18:11 39.345662 -106.360925 249 37137ft 443kts
16-Jul-20 18:12 39.303389 -106.509285 248 38646ft 442kts
16-Jul-20 18:13 39.261743 -106.654501 248 39789ft 442kts
16-Jul-20 18:14 39.210519 -106.795938 237 40390ft 451kts
16-Jul-20 18:15 39.141573 -106.925233 235 40452ft 471kts
16-Jul-20 18:16 39.073201 -107.055681 237 40458ft 442kts
16-Jul-20 18:17 39.005834 -107.188001 237 40456ft 443kts
16-Jul-20 18:18 38.941368 -107.317326 239 38479ft 439kts
16-Jul-20 18:19 38.885473 -107.444356 242 39929ft 428kts
16-Jul-20 18:20 38.833800 -107.586408 247 40113ft 445kts
16-Jul-20 18:21 38.791349 -107.735179 251 39734ft 447kts
16-Jul-20 18:22 38.757111 -107.885462 253 39298ft 442kts
16-Jul-20 18:23 38.728331 -108.040505 256 39639ft 464kts
16-Jul-20 18:24 38.707301 -108.200032 259 39232ft 459kts
16-Jul-20 18:25 38.640574 -108.319200 212 40284ft 440kts
16-Jul-20 18:26 38.531294 -108.392422 208 40283ft 453kts
16-Jul-20 18:27 38.419487 -108.465522 208 40304ft 453kts
16-Jul-20 18:28 38.310660 -108.546747 219 40317ft 452kts
16-Jul-20 18:29 38.229531 -108.662010 234 40349ft 457kts
16-Jul-20 18:30 38.160666 -108.795550 236 40527ft 462kts
16-Jul-20 18:31 38.089058 -108.931378 234 40408ft 462kts
16-Jul-20 18:32 38.016126 -109.065745 234 40273ft 462kts
16-Jul-20 18:33 37.942954 -109.200001 234 40272ft 462kts
16-Jul-20 18:34 37.871414 -109.330728 234 40272ft 457kts
16-Jul-20 18:35 37.797974 -109.462248 234 40277ft 458kts
16-Jul-20 18:36 37.724991 -109.594252 235 40277ft 463kts
16-Jul-20 18:37 37.652852 -109.725481 234 40275ft 463kts
16-Jul-20 18:38 37.580276 -109.857651 234 40279ft 457kts
16-Jul-20 18:39 37.506932 -109.989564 234 40275ft 458kts
16-Jul-20 18:40 37.433270 -110.121195 234 40268ft 458kts
16-Jul-20 18:41 37.359699 -110.252279 234 40264ft 458kts
16-Jul-20 18:42 37.285417 -110.384114 234 40272ft 460kts
16-Jul-20 18:43 37.211000 -110.515604 234 40178ft 466kts
16-Jul-20 18:44 37.136143 -110.647478 234 40052ft 465kts
16-Jul-20 18:45 37.062114 -110.778390 234 40057ft 463kts
16-Jul-20 18:46 36.987407 -110.909755 233 40053ft 462kts
16-Jul-20 18:47 36.909852 -111.044676 233 40052ft 462kts
16-Jul-20 18:48 36.834639 -111.173335 233 40055ft 462kts
16-Jul-20 18:49 36.758715 -111.302893 233 40051ft 459kts
16-Jul-20 18:50 36.683530 -111.432226 233 40054ft 463kts
16-Jul-20 18:51 36.607748 -111.562325 233 40053ft 463kts
16-Jul-20 18:52 36.532482 -111.690884 233 40056ft 463kts
16-Jul-20 18:53 36.456927 -111.820696 233 40055ft 463kts
16-Jul-20 18:54 36.379368 -111.952494 233 40237ft 463kts
16-Jul-20 18:55 36.302379 -112.082305 233 40312ft 464kts
16-Jul-20 18:56 36.225882 -112.210877 233 40306ft 467kts
16-Jul-20 18:57 36.148533 -112.340438 232 40310ft 466kts
16-Jul-20 18:58 36.071023 -112.469781 232 40306ft 466kts
16-Jul-20 19:00 35.993552 -112.598525 232 40303ft 466kts
16-Jul-20 19:01 35.916634 -112.726493 232 40307ft 466kts
16-Jul-20 19:02 35.839180 -112.854062 231 40311ft 468kts
16-Jul-20 19:03 35.760344 -112.982261 232 40315ft 468kts
16-Jul-20 19:04 35.681775 -113.111138 232 40309ft 470kts
16-Jul-20 19:05 35.604135 -113.241924 238 40159ft 471kts
16-Jul-20 19:06 35.551506 -113.389438 248 40018ft 471kts
16-Jul-20 19:07 35.504842 -113.540105 246 40017ft 471kts
16-Jul-20 19:08 35.455276 -113.687455 245 40019ft 471kts
16-Jul-20 19:09 35.405063 -113.835675 245 40018ft 469kts
16-Jul-20 19:10 35.354731 -113.983561 245 40017ft 469kts
16-Jul-20 19:11 35.303833 -114.131840 245 40017ft 469kts
16-Jul-20 19:12 35.253227 -114.278595 245 40016ft 469kts
16-Jul-20 19:13 35.202085 -114.426222 245 39775ft 470kts
16-Jul-20 19:13 35.159336 -114.549013 245 39777ft 470kts
16-Jul-20 19:15 35.099880 -114.719932 245 39778ft 470kts
16-Jul-20 19:16 35.048976 -114.867096 244 39776ft 466kts
16-Jul-20 19:16 35.003546 -114.983959 240 39744ft 437kts
16-Jul-20 19:17 34.945339 -115.114782 239 39807ft 439kts
16-Jul-20 19:19 34.878369 -115.266905 239 39814ft 432kts
16-Jul-20 19:19 34.830533 -115.374238 240 39809ft 433kts
16-Jul-20 19:20 34.775932 -115.503676 243 39766ft 407kts
16-Jul-20 19:21 34.729996 -115.629871 244 39928ft 406kts
16-Jul-20 19:22 34.685029 -115.753899 243 39958ft 401kts
16-Jul-20 19:23 34.639028 -115.878356 243 39932ft 403kts
16-Jul-20 19:24 34.592901 -116.002912 243 38132ft 401kts
16-Jul-20 19:25 34.547521 -116.126012 243 36239ft 399kts
16-Jul-20 19:26 34.501586 -116.249740 242 34276ft 403kts
16-Jul-20 19:27 34.455135 -116.374362 243 32306ft 407kts
16-Jul-20 19:28 34.405193 -116.506505 242 30371ft 428kts
16-Jul-20 19:29 34.353033 -116.632270 240 28321ft 409kts
16-Jul-20 19:30 34.303907 -116.752883 242 26330ft 399kts
16-Jul-20 19:31 34.256115 -116.872775 242 24328ft 393kts
16-Jul-20 19:32 34.209291 -116.989736 245 22313ft 382kts
16-Jul-20 19:33 34.176823 -117.109074 251 20288ft 367kts
16-Jul-20 19:34 34.146467 -117.223569 249 18253ft 352kts
16-Jul-20 19:35 34.115532 -117.333970 249 16430ft 346kts
16-Jul-20 19:36 34.086972 -117.443611 251 14836ft 339kts
16-Jul-20 19:37 34.056936 -117.546902 244 13280ft 313kts
16-Jul-20 19:38 34.024002 -117.636022 243 11680ft 282kts
16-Jul-20 19:39 34.002311 -117.723864 262 10383ft 270kts
16-Jul-20 19:40 33.994497 -117.814185 261 9181ft 273kts
16-Jul-20 19:41 33.985816 -117.902291 261 7941ft 256kts
16-Jul-20 19:42 33.977828 -117.984342 260 6726ft 244kts
16-Jul-20 19:43 33.969796 -118.063294 260 5627ft 231kts
16-Jul-20 19:44 33.962686 -118.134183 260 4619ft 205kts
16-Jul-20 19:45 33.956272 -118.199181 261 3008ft 181kts
16-Jul-20 19:46 33.952462 -118.249728 264 1817ft 146kts
16-Jul-20 19:47 33.950282 -118.295406 263 2039ft 145kts
16-Jul-20 19:48 33.941731 -118.341872 260 1062ft 139kts
16-Jul-20 19:49 33.937115 -118.385782 263 119ft 133kts
16-Jul-20 19:50 33.936029 -118.402952 285 127ft 21kts
16-Jul-20 19:51 33.935914 -118.407792 269 133ft 12kts
16-Jul-20 19:52 33.936393 -118.412630 344 132ft 18kts
16-Jul-20 19:53 33.941229 -118.412000 358 130ft 9kts
16-Jul-20 19:54 33.941749 -118.410995 81 130ft 0kts
16-Jul-20 19:55 33.941751 -118.410983 81 130ft 0kts

Navigation Log

Ident Type
Flight plan parsing failed, navigation log unavailable